createdAt,value
2023-06-08T00:01:16.913Z,5.10
2023-06-08T00:03:46.297Z,4.55
2023-06-08T00:06:17.069Z,4.47
2023-06-08T00:08:46.693Z,4.30
2023-06-08T00:11:16.082Z,4.20
2023-06-08T00:13:45.359Z,4.00
2023-06-08T00:16:15.926Z,4.35
2023-06-08T00:18:45.945Z,4.30
2023-06-08T00:21:17.189Z,4.32
2023-06-08T00:23:46.528Z,4.13
2023-06-08T00:26:15.779Z,3.60
2023-06-08T00:28:47.426Z,4.25
2023-06-08T00:31:17.656Z,3.70
2023-06-08T00:33:47.141Z,3.33
2023-06-08T00:36:17.868Z,3.75
2023-06-08T00:38:47.086Z,5.50
2023-06-08T00:41:16.259Z,5.43
2023-06-08T00:43:46.881Z,4.80
2023-06-08T00:46:16.907Z,4.53
2023-06-08T00:48:48.522Z,4.00
2023-06-08T00:51:20.272Z,3.58
2023-06-08T00:53:49.838Z,3.83
2023-06-08T00:56:19.949Z,3.75
2023-06-08T00:58:50.218Z,4.05
2023-06-08T01:01:19.496Z,4.38
2023-06-08T01:03:48.840Z,4.30
2023-06-08T01:06:22.236Z,3.97
2023-06-08T01:09:00.826Z,4.15
2023-06-08T01:11:40.750Z,3.70
2023-06-08T01:14:19.624Z,3.85
2023-06-08T01:16:52.280Z,4.85
2023-06-08T01:19:38.036Z,5.63
2023-06-08T01:22:22.002Z,5.40
2023-06-08T01:25:01.418Z,4.80
2023-06-08T01:27:38.361Z,4.32
2023-06-08T01:30:10.074Z,3.85
2023-06-08T01:32:39.744Z,4.45
2023-06-08T01:35:09.539Z,4.43
2023-06-08T01:37:44.916Z,4.00
2023-06-08T01:40:22.100Z,3.78
2023-06-08T01:42:54.874Z,3.78
2023-06-08T01:45:28.947Z,3.58
2023-06-08T01:48:00.991Z,4.00
2023-06-08T01:50:32.995Z,3.38
2023-06-08T01:53:03.153Z,3.58
2023-06-08T01:55:33.764Z,3.42
2023-06-08T01:58:03.026Z,3.53
2023-06-08T02:00:32.738Z,3.38
2023-06-08T02:03:02.187Z,3.30
2023-06-08T02:05:31.830Z,3.40
2023-06-08T02:08:03.054Z,3.47
2023-06-08T02:10:34.024Z,4.53
2023-06-08T02:13:03.843Z,3.30
2023-06-08T02:15:33.121Z,3.65
2023-06-08T02:18:02.902Z,3.50
2023-06-08T02:20:34.694Z,4.05
2023-06-08T02:23:04.056Z,3.90
2023-06-08T02:25:34.643Z,3.55
2023-06-08T02:28:04.194Z,2.80
2023-06-08T02:30:33.425Z,2.80
2023-06-08T02:33:02.890Z,3.60
2023-06-08T02:35:32.315Z,3.15
2023-06-08T02:38:01.613Z,3.30
2023-06-08T02:40:30.778Z,3.40
2023-06-08T02:43:01.951Z,2.97
2023-06-08T02:45:31.779Z,3.78
2023-06-08T02:48:03.379Z,3.63
2023-06-08T02:50:33.466Z,3.33
2023-06-08T02:53:03.972Z,3.08
2023-06-08T02:55:36.371Z,3.17
2023-06-08T02:58:12.200Z,3.03
2023-06-08T03:00:41.585Z,3.28
2023-06-08T03:03:30.860Z,3.10
2023-06-08T03:06:06.652Z,3.47
2023-06-08T03:08:41.030Z,3.45
2023-06-08T03:11:11.639Z,3.88
2023-06-08T03:13:43.451Z,3.90
2023-06-08T03:16:13.823Z,3.30
2023-06-08T03:18:43.363Z,3.25
2023-06-08T03:21:13.945Z,3.58
2023-06-08T03:23:45.891Z,3.20
2023-06-08T03:26:15.158Z,3.20
2023-06-08T03:28:45.955Z,3.05
2023-06-08T03:31:16.020Z,4.18
2023-06-08T03:33:49.485Z,4.47
2023-06-08T03:36:20.558Z,4.95
2023-06-08T03:38:49.838Z,6.78
2023-06-08T03:41:21.278Z,4.60
2023-06-08T03:43:56.165Z,4.90
2023-06-08T03:46:28.555Z,6.18
2023-06-08T03:49:00.017Z,5.25
2023-06-08T03:51:29.482Z,6.95
2023-06-08T03:53:59.056Z,5.15
2023-06-08T03:56:29.582Z,4.93
2023-06-08T03:59:01.268Z,5.22
2023-06-08T04:01:31.826Z,5.10
2023-06-08T04:04:01.862Z,6.90
2023-06-08T04:06:35.224Z,5.68
2023-06-08T04:09:08.150Z,5.05
2023-06-08T04:11:37.803Z,10.40
2023-06-08T04:14:08.557Z,23.38
2023-06-08T04:16:41.615Z,12.15
2023-06-08T04:19:12.139Z,6.85
2023-06-08T04:21:47.008Z,5.28
2023-06-08T04:24:19.098Z,7.28
2023-06-08T04:26:49.892Z,8.32
2023-06-08T04:29:21.112Z,6.10
2023-06-08T04:31:51.520Z,8.27
2023-06-08T04:34:22.031Z,7.40
2023-06-08T04:36:52.091Z,6.70
2023-06-08T04:39:21.327Z,6.55
2023-06-08T04:41:50.926Z,5.43
2023-06-08T04:44:22.338Z,5.10
2023-06-08T04:46:54.790Z,7.45
2023-06-08T04:49:24.134Z,6.70
2023-06-08T04:51:56.862Z,5.25
2023-06-08T04:54:31.260Z,6.15
2023-06-08T04:57:02.334Z,6.25
2023-06-08T04:59:32.939Z,9.00
2023-06-08T05:02:02.807Z,5.63
2023-06-08T05:04:32.230Z,5.60
2023-06-08T05:07:01.433Z,5.75
2023-06-08T05:09:30.702Z,6.40
2023-06-08T05:11:59.964Z,8.13
2023-06-08T05:14:29.248Z,7.32
2023-06-08T05:16:59.973Z,7.60
2023-06-08T05:19:29.211Z,7.53
2023-06-08T05:21:58.429Z,6.10
2023-06-08T05:24:27.775Z,9.15
2023-06-08T05:26:57.994Z,5.40
2023-06-08T05:29:27.186Z,6.85
2023-06-08T05:31:56.389Z,7.95
2023-06-08T05:34:27.100Z,10.48
2023-06-08T05:36:56.472Z,6.97
2023-06-08T05:39:25.847Z,8.52
2023-06-08T05:41:55.020Z,9.27
2023-06-08T05:44:24.428Z,8.65
2023-06-08T05:46:53.616Z,6.50
2023-06-08T05:49:22.866Z,7.82
2023-06-08T05:51:53.509Z,7.63
2023-06-08T05:54:22.801Z,6.05
2023-06-08T05:56:52.513Z,5.90
2023-06-08T05:59:21.726Z,5.65
2023-06-08T06:01:50.910Z,7.47
2023-06-08T06:04:35.079Z,7.47
2023-06-08T06:07:08.924Z,8.95
2023-06-08T06:09:38.296Z,7.93
2023-06-08T06:12:09.299Z,7.65
2023-06-08T06:14:39.778Z,7.88
2023-06-08T06:17:10.112Z,11.68
2023-06-08T06:19:39.990Z,6.32
2023-06-08T06:22:11.665Z,6.82
2023-06-08T06:24:41.333Z,6.55
2023-06-08T06:27:11.021Z,5.82
2023-06-08T06:29:40.438Z,8.50
2023-06-08T06:32:10.743Z,6.75
2023-06-08T06:34:40.624Z,8.05
2023-06-08T06:37:11.193Z,5.40
2023-06-08T06:39:40.423Z,5.63
2023-06-08T06:42:11.386Z,7.53
2023-06-08T06:44:47.297Z,6.47
2023-06-08T06:47:16.584Z,7.55
2023-06-08T06:49:45.729Z,5.65
2023-06-08T06:52:16.408Z,8.32
2023-06-08T06:54:45.785Z,6.22
2023-06-08T06:57:14.974Z,4.72
2023-06-08T06:59:46.792Z,4.45
2023-06-08T07:02:16.150Z,4.38
2023-06-08T07:04:45.396Z,5.65
2023-06-08T07:07:15.979Z,4.95
2023-06-08T07:09:45.213Z,5.50
2023-06-08T07:12:16.841Z,5.20
2023-06-08T07:14:46.289Z,4.97
2023-06-08T07:17:15.587Z,5.00
2023-06-08T07:19:47.329Z,5.20
2023-06-08T07:22:25.066Z,5.50
2023-06-08T07:25:31.495Z,5.18
2023-06-08T07:27:58.009Z,4.95
2023-06-08T07:30:27.488Z,4.63
2023-06-08T07:32:57.348Z,4.68
2023-06-08T07:35:26.620Z,4.68
2023-06-08T07:37:57.299Z,4.60
2023-06-08T07:40:26.550Z,5.28
2023-06-08T07:42:55.745Z,5.07
2023-06-08T07:45:25.184Z,4.43
2023-06-08T07:47:54.491Z,4.40
2023-06-08T07:50:24.022Z,4.45
2023-06-08T07:52:53.328Z,4.60
2023-06-08T07:55:24.083Z,6.28
2023-06-08T07:57:53.326Z,4.53
2023-06-08T08:00:24.866Z,4.43
2023-06-08T08:02:55.230Z,4.72
2023-06-08T08:05:24.716Z,5.00
2023-06-08T08:07:53.927Z,4.13
2023-06-08T08:10:26.446Z,4.70
2023-06-08T08:12:56.601Z,4.35
2023-06-08T08:15:25.862Z,4.10
2023-06-08T08:17:55.149Z,4.88
2023-06-08T08:20:24.321Z,4.60
2023-06-08T08:22:53.675Z,4.22
2023-06-08T08:25:24.340Z,4.70
2023-06-08T08:27:53.549Z,4.43
2023-06-08T08:30:23.001Z,4.30
2023-06-08T08:32:52.515Z,5.15
2023-06-08T08:35:24.124Z,4.47
2023-06-08T08:37:53.341Z,4.75
2023-06-08T08:40:23.936Z,5.07
2023-06-08T08:43:00.859Z,5.30
2023-06-08T08:45:35.712Z,5.03
2023-06-08T08:48:05.209Z,4.97
2023-06-08T08:50:38.234Z,4.75
2023-06-08T08:53:08.165Z,4.70
2023-06-08T08:55:42.714Z,4.88
2023-06-08T08:58:14.558Z,4.30
2023-06-08T09:00:44.024Z,4.70
2023-06-08T09:03:13.317Z,4.50
2023-06-08T09:05:42.587Z,4.32
2023-06-08T09:08:12.012Z,4.40
2023-06-08T09:10:42.770Z,4.22
2023-06-08T09:13:22.532Z,3.80
2023-06-08T09:15:51.837Z,4.38
2023-06-08T09:18:21.659Z,4.60
2023-06-08T09:20:51.379Z,4.47
2023-06-08T09:23:24.467Z,5.57
2023-06-08T09:25:55.207Z,4.47
2023-06-08T09:28:27.537Z,4.20
2023-06-08T09:31:02.194Z,4.53
2023-06-08T09:33:34.654Z,4.28
2023-06-08T09:36:09.565Z,3.95
2023-06-08T09:38:39.386Z,4.13
2023-06-08T09:41:17.934Z,4.18
2023-06-08T09:43:48.726Z,4.85
2023-06-08T09:46:35.376Z,4.28
2023-06-08T09:49:08.964Z,4.90
2023-06-08T09:51:41.671Z,4.70
2023-06-08T09:54:15.013Z,4.25
2023-06-08T09:56:49.380Z,4.45
2023-06-08T09:59:19.440Z,4.07
2023-06-08T10:01:55.917Z,5.07
2023-06-08T10:04:27.531Z,3.88
2023-06-08T10:06:59.478Z,4.22
2023-06-08T10:09:32.677Z,4.55
2023-06-08T10:12:04.198Z,4.28
2023-06-08T10:14:35.302Z,4.38
2023-06-08T10:17:05.608Z,4.47
2023-06-08T10:19:35.487Z,4.15
2023-06-08T10:22:06.378Z,4.40
2023-06-08T10:24:37.430Z,4.35
2023-06-08T10:27:30.529Z,4.25
2023-06-08T10:30:01.999Z,4.72
2023-06-08T10:32:33.623Z,4.57
2023-06-08T10:35:06.581Z,4.95
2023-06-08T10:37:38.705Z,4.57
2023-06-08T10:40:10.585Z,4.25
2023-06-08T10:42:56.416Z,4.57
2023-06-08T10:45:34.031Z,4.43
2023-06-08T10:48:08.976Z,4.07
2023-06-08T10:50:41.622Z,4.25
2023-06-08T10:53:10.994Z,4.65
2023-06-08T10:55:40.209Z,4.65
2023-06-08T10:58:19.939Z,4.88
2023-06-08T11:00:52.221Z,4.70
2023-06-08T11:03:22.862Z,4.18
2023-06-08T11:05:55.060Z,5.10
2023-06-08T11:08:24.552Z,4.15
2023-06-08T11:10:55.809Z,4.43
2023-06-08T11:13:26.809Z,4.10
2023-06-08T11:15:56.197Z,4.20
2023-06-08T11:18:25.612Z,4.72
2023-06-08T11:20:59.940Z,4.63
2023-06-08T11:23:34.653Z,4.63
2023-06-08T11:26:04.067Z,4.57
2023-06-08T11:28:34.681Z,5.15
2023-06-08T11:31:08.660Z,4.97
2023-06-08T11:33:38.231Z,4.60
2023-06-08T11:36:07.972Z,4.78
2023-06-08T11:38:37.601Z,4.78
2023-06-08T11:41:06.820Z,4.32
2023-06-08T11:43:37.494Z,4.30
2023-06-08T11:46:07.082Z,4.28
2023-06-08T11:48:36.241Z,4.80
2023-06-08T11:51:05.520Z,4.75
2023-06-08T11:53:35.121Z,4.68
2023-06-08T11:56:06.481Z,4.68
2023-06-08T11:58:41.795Z,4.40
2023-06-08T12:01:14.554Z,4.97
2023-06-08T12:03:47.738Z,4.22
2023-06-08T12:06:18.279Z,4.10
2023-06-08T12:08:47.997Z,4.57
2023-06-08T12:11:17.391Z,4.35
2023-06-08T12:13:49.132Z,4.65
2023-06-08T12:16:18.314Z,4.15
2023-06-08T12:18:47.518Z,4.75
2023-06-08T12:21:19.947Z,4.82
2023-06-08T12:23:49.251Z,4.68
2023-06-08T12:26:18.585Z,5.10
2023-06-08T12:28:49.239Z,4.93
2023-06-08T12:31:18.841Z,4.90
2023-06-08T12:33:48.378Z,4.80
2023-06-08T12:36:17.585Z,4.68
2023-06-08T12:38:46.787Z,5.15
2023-06-08T12:41:16.029Z,4.43
2023-06-08T12:43:48.014Z,5.13
2023-06-08T12:46:20.974Z,5.30
2023-06-08T12:48:51.069Z,5.10
2023-06-08T12:51:20.373Z,5.43
2023-06-08T12:53:49.590Z,4.68
2023-06-08T12:56:19.014Z,5.07
2023-06-08T12:58:48.312Z,4.72
2023-06-08T13:01:21.287Z,4.85
2023-06-08T13:03:50.782Z,5.28
2023-06-08T13:06:20.090Z,5.30
2023-06-08T13:08:49.296Z,5.10
2023-06-08T13:11:18.551Z,5.03
2023-06-08T13:13:47.715Z,4.80
2023-06-08T13:16:18.420Z,5.28
2023-06-08T13:18:47.883Z,5.18
2023-06-08T13:21:17.582Z,5.22
2023-06-08T13:23:49.771Z,5.07
2023-06-08T13:26:20.700Z,4.65
2023-06-08T13:28:49.880Z,4.80
2023-06-08T13:31:20.785Z,5.28
2023-06-08T13:33:50.520Z,4.82
2023-06-08T13:36:19.959Z,5.05
2023-06-08T13:38:49.139Z,5.32
2023-06-08T13:41:19.365Z,4.88
2023-06-08T13:43:48.632Z,5.13
2023-06-08T13:46:19.414Z,5.10
2023-06-08T13:48:48.708Z,5.20
2023-06-08T13:51:17.861Z,5.22
2023-06-08T13:53:47.661Z,5.40
2023-06-08T13:56:17.366Z,5.00
2023-06-08T13:58:46.653Z,5.00
2023-06-08T14:01:16.034Z,5.68
2023-06-08T14:03:46.976Z,5.50
2023-06-08T14:06:16.299Z,5.05
2023-06-08T14:08:45.980Z,5.10
2023-06-08T14:11:15.264Z,5.20
2023-06-08T14:13:45.159Z,5.45
2023-06-08T14:16:14.816Z,4.80
2023-06-08T14:18:44.472Z,4.78
2023-06-08T14:21:15.185Z,5.25
2023-06-08T14:23:44.510Z,5.28
2023-06-08T14:26:13.770Z,5.28
2023-06-08T14:28:43.373Z,4.95
2023-06-08T14:31:13.540Z,5.22
2023-06-08T14:33:42.895Z,5.22
2023-06-08T14:36:12.133Z,5.22
2023-06-08T14:38:42.841Z,5.07
2023-06-08T14:41:12.033Z,4.95
2023-06-08T14:43:41.379Z,5.47
2023-06-08T14:46:12.606Z,5.40
2023-06-08T14:48:42.694Z,5.20
2023-06-08T14:51:23.816Z,4.70
2023-06-08T14:54:02.624Z,5.35
2023-06-08T14:56:31.925Z,5.10
2023-06-08T14:59:01.201Z,4.43
2023-06-08T15:01:30.462Z,4.97
2023-06-08T15:04:00.013Z,4.70
2023-06-08T15:06:29.258Z,4.55
2023-06-08T15:08:58.390Z,4.68
2023-06-08T15:11:29.045Z,4.90
2023-06-08T15:13:58.235Z,5.13
2023-06-08T15:16:27.550Z,5.13
2023-06-08T15:18:56.774Z,7.55
2023-06-08T15:21:25.994Z,4.60
2023-06-08T15:23:55.303Z,6.20
2023-06-08T15:26:24.560Z,4.97
2023-06-08T15:28:55.185Z,6.13
2023-06-08T15:31:24.425Z,5.25
2023-06-08T15:33:53.979Z,4.63
2023-06-08T15:36:23.198Z,4.80
2023-06-08T15:38:52.519Z,5.20
2023-06-08T15:41:21.737Z,5.05
2023-06-08T15:43:51.059Z,4.65
2023-06-08T15:46:21.788Z,4.60
2023-06-08T15:48:55.403Z,4.47
2023-06-08T15:51:32.134Z,4.60
2023-06-08T15:54:03.546Z,4.47
2023-06-08T15:56:32.772Z,4.68
2023-06-08T15:59:02.010Z,4.40
2023-06-08T16:01:33.073Z,4.55
2023-06-08T16:04:02.482Z,4.57
2023-06-08T16:06:31.758Z,4.45
2023-06-08T16:09:01.115Z,4.90
2023-06-08T16:11:30.424Z,3.97
2023-06-08T16:13:59.784Z,4.65
2023-06-08T16:16:29.080Z,4.47
2023-06-08T16:18:59.833Z,4.43
2023-06-08T16:21:31.910Z,4.45
2023-06-08T16:24:01.311Z,4.65
2023-06-08T16:26:30.517Z,4.53
2023-06-08T16:28:59.898Z,4.50
2023-06-08T16:31:33.752Z,4.68
2023-06-08T16:34:04.709Z,4.47
2023-06-08T16:36:34.029Z,5.30
2023-06-08T16:39:03.288Z,4.32
2023-06-08T16:41:32.519Z,4.03
2023-06-08T16:44:01.791Z,4.25
2023-06-08T16:46:31.650Z,4.10
2023-06-08T16:49:01.445Z,4.43
2023-06-08T16:51:32.120Z,4.25
2023-06-08T16:54:03.903Z,4.00
2023-06-08T16:56:33.447Z,4.97
2023-06-08T16:59:02.945Z,4.43
2023-06-08T17:01:32.481Z,4.25
2023-06-08T17:04:01.771Z,4.30
2023-06-08T17:06:32.530Z,4.68
2023-06-08T17:09:01.749Z,4.10
2023-06-08T17:11:33.138Z,4.10
2023-06-08T17:14:02.456Z,4.43
2023-06-08T17:16:31.812Z,4.15
2023-06-08T17:19:01.185Z,4.47
2023-06-08T17:21:31.815Z,6.38
2023-06-08T17:24:01.363Z,5.63
2023-06-08T17:26:30.769Z,5.47
2023-06-08T17:29:00.041Z,6.75
2023-06-08T17:31:29.438Z,6.35
2023-06-08T17:33:59.214Z,5.15
2023-06-08T17:36:28.399Z,5.68
2023-06-08T17:38:59.223Z,6.15
2023-06-08T17:41:29.125Z,13.93
2023-06-08T17:43:58.421Z,21.63
2023-06-08T17:46:27.771Z,22.70
2023-06-08T17:48:56.986Z,28.00
2023-06-08T17:51:26.399Z,20.45
2023-06-08T17:53:55.831Z,15.05
2023-06-08T17:56:26.529Z,13.13
2023-06-08T17:58:55.976Z,10.02
2023-06-08T18:01:25.267Z,8.45
2023-06-08T18:03:54.882Z,10.02
2023-06-08T18:06:25.737Z,10.32
2023-06-08T18:08:57.529Z,9.75
2023-06-08T18:11:29.461Z,9.10
2023-06-08T18:13:59.086Z,10.40
2023-06-08T18:16:28.588Z,8.32
2023-06-08T18:18:58.176Z,7.60
2023-06-08T18:21:27.621Z,7.93
2023-06-08T18:23:57.105Z,8.57
2023-06-08T18:26:29.370Z,9.30
2023-06-08T18:28:59.095Z,7.25
2023-06-08T18:31:30.169Z,7.93
2023-06-08T18:33:59.920Z,7.88
2023-06-08T18:36:29.904Z,7.90
2023-06-08T18:38:59.313Z,8.93
2023-06-08T18:41:30.167Z,8.18
2023-06-08T18:43:59.657Z,7.75
2023-06-08T18:46:28.850Z,8.05
2023-06-08T18:49:00.119Z,7.88
2023-06-08T18:51:29.666Z,7.95
2023-06-08T18:53:59.098Z,7.95
2023-06-08T18:56:34.238Z,9.15
2023-06-08T18:59:04.780Z,7.93
2023-06-08T19:01:34.276Z,7.78
2023-06-08T19:04:03.716Z,7.72
2023-06-08T19:06:33.840Z,7.70
2023-06-08T19:09:03.201Z,9.40
2023-06-08T19:11:33.946Z,7.65
2023-06-08T19:14:03.584Z,8.65
2023-06-08T19:16:33.143Z,12.30
2023-06-08T19:19:07.713Z,11.27
2023-06-08T19:21:38.017Z,11.07
2023-06-08T19:24:09.731Z,7.47
2023-06-08T19:26:41.134Z,9.45
2023-06-08T19:29:11.975Z,8.07
2023-06-08T19:31:42.323Z,6.95
2023-06-08T19:34:12.705Z,7.38
2023-06-08T19:36:41.971Z,8.75
2023-06-08T19:39:11.389Z,7.85
2023-06-08T19:41:42.062Z,8.85
2023-06-08T19:44:11.652Z,10.93
2023-06-08T19:46:42.628Z,9.52
2023-06-08T19:49:12.067Z,8.07
2023-06-08T19:51:43.548Z,6.65
2023-06-08T19:54:15.110Z,9.40
2023-06-08T19:56:50.024Z,7.40
2023-06-08T19:59:20.427Z,7.43
2023-06-08T20:01:52.766Z,11.50
2023-06-08T20:04:22.472Z,7.57
2023-06-08T20:06:54.032Z,7.50
2023-06-08T20:09:24.005Z,7.22
2023-06-08T20:11:57.363Z,10.73
2023-06-08T20:14:27.031Z,8.25
2023-06-08T20:16:57.613Z,7.80
2023-06-08T20:19:27.319Z,8.73
2023-06-08T20:21:56.436Z,9.85
2023-06-08T20:24:25.888Z,6.85
2023-06-08T20:26:56.518Z,7.47
2023-06-08T20:29:26.082Z,7.53
2023-06-08T20:31:55.275Z,7.57
2023-06-08T20:34:24.655Z,7.47
2023-06-08T20:36:53.876Z,6.90
2023-06-08T20:39:23.176Z,7.25
2023-06-08T20:41:54.425Z,8.30
2023-06-08T20:44:25.104Z,7.65
2023-06-08T20:46:56.304Z,7.68
2023-06-08T20:49:25.599Z,7.40
2023-06-08T20:51:54.865Z,7.65
2023-06-08T20:54:24.186Z,7.30
2023-06-08T20:56:53.534Z,6.55
2023-06-08T20:59:24.257Z,7.35
2023-06-08T21:01:53.495Z,7.20
2023-06-08T21:04:30.421Z,6.90
2023-06-08T21:07:00.265Z,6.65
2023-06-08T21:09:29.850Z,7.25
2023-06-08T21:11:59.435Z,6.63
2023-06-08T21:14:30.200Z,6.85
2023-06-08T21:16:59.538Z,6.30
2023-06-08T21:19:28.722Z,7.05
2023-06-08T21:21:57.923Z,6.63
2023-06-08T21:24:29.010Z,7.38
2023-06-08T21:26:58.827Z,6.57
2023-06-08T21:29:29.460Z,6.60
2023-06-08T21:31:58.724Z,6.90
2023-06-08T21:34:27.949Z,6.82
2023-06-08T21:36:57.099Z,6.10
2023-06-08T21:39:26.376Z,6.40
2023-06-08T21:41:55.641Z,6.57
2023-06-08T21:44:25.070Z,6.30
2023-06-08T21:46:55.710Z,6.70
2023-06-08T21:49:24.899Z,6.78
2023-06-08T21:51:54.040Z,6.57
2023-06-08T21:54:23.955Z,6.10
2023-06-08T21:56:53.206Z,5.95
2023-06-08T21:59:22.860Z,6.03
2023-06-08T22:01:52.074Z,6.15
2023-06-08T22:04:25.570Z,6.32
2023-06-08T22:06:55.217Z,6.82
2023-06-08T22:09:24.324Z,6.13
2023-06-08T22:11:56.257Z,6.38
2023-06-08T22:14:26.893Z,6.55
2023-06-08T22:16:56.056Z,5.97
2023-06-08T22:19:29.535Z,6.15
2023-06-08T22:21:58.677Z,5.65
2023-06-08T22:24:27.808Z,5.68
2023-06-08T22:26:57.323Z,5.70
2023-06-08T22:29:27.131Z,5.90
2023-06-08T22:31:56.345Z,6.07
2023-06-08T22:34:27.691Z,6.40
2023-06-08T22:36:57.414Z,6.10
2023-06-08T22:39:26.602Z,6.22
2023-06-08T22:41:55.713Z,6.03
2023-06-08T22:44:25.444Z,5.93
2023-06-08T22:46:55.581Z,5.28
2023-06-08T22:49:29.469Z,5.47
2023-06-08T22:52:03.363Z,5.50
2023-06-08T22:54:32.756Z,5.88
2023-06-08T22:57:02.016Z,5.95
2023-06-08T22:59:31.251Z,6.45
2023-06-08T23:02:00.450Z,5.63
2023-06-08T23:04:34.970Z,5.90
2023-06-08T23:07:04.729Z,5.88
2023-06-08T23:09:34.088Z,6.00
2023-06-08T23:12:03.902Z,6.03
2023-06-08T23:14:33.494Z,5.70
2023-06-08T23:17:03.168Z,5.15
2023-06-08T23:19:34.446Z,5.88
2023-06-08T23:22:03.706Z,5.70
2023-06-08T23:24:32.903Z,5.20
2023-06-08T23:27:02.235Z,5.10
2023-06-08T23:29:31.409Z,5.30
2023-06-08T23:32:00.866Z,5.28
2023-06-08T23:34:30.092Z,5.15
2023-06-08T23:37:01.605Z,5.43
2023-06-08T23:39:30.885Z,5.72
2023-06-08T23:42:00.170Z,5.82
2023-06-08T23:44:29.554Z,5.38
2023-06-08T23:46:59.042Z,4.72
2023-06-08T23:49:28.480Z,5.43
2023-06-08T23:51:57.744Z,5.32
2023-06-08T23:54:28.822Z,5.47
2023-06-08T23:56:58.083Z,5.18
2023-06-08T23:59:27.468Z,5.93
